Time;durP1;ratioP1;P1;durP2;ratioP2;P2;SDS_P1;SDS_P2;PMS_P1;PMS_P2;Temp;Humidity;BMP_temperature;BMP_pressure;BME280_temperature;BME280_humidity;BME280_pressure;Samples;Min_cycle;Max_cycle;Signal;HPM_P1;HPM_P2
2023/05/06 00:01:27;;;;;;;36.05;21.02;;;10.00;99.90;;;-144.05;91.12;56876.44;5035713;28;20068;-78
2023/05/06 00:03:53;;;;;;;38.90;21.73;;;9.90;99.90;;;-144.05;90.85;56846.72;5036120;28;20068;-78
2023/05/06 00:06:18;;;;;;;39.63;20.65;;;9.90;99.90;;;-144.05;90.74;56861.56;5038438;28;20345;-79
2023/05/06 00:08:45;;;;;;;39.33;23.15;;;9.90;99.90;;;-144.05;90.83;56872.19;5039540;28;20048;-78
2023/05/06 00:11:12;;;;;;;36.70;21.42;;;9.90;99.90;;;-144.05;91.10;56865.81;5039456;28;20022;-78
2023/05/06 00:13:38;;;;;;;46.65;22.73;;;9.90;99.90;;;-144.05;91.13;56844.59;5036320;28;20040;-78
2023/05/06 00:16:04;;;;;;;38.28;19.98;;;9.90;99.90;;;-144.05;90.95;56848.84;5036113;28;20025;-78
2023/05/06 00:18:30;;;;;;;42.05;21.55;;;10.00;99.90;;;-144.05;91.18;56861.56;5037746;28;20032;-77
2023/05/06 00:20:56;;;;;;;40.00;21.73;;;10.00;99.90;;;-144.05;90.98;56857.34;5036865;28;20033;-78
2023/05/06 00:23:22;;;;;;;37.25;21.27;;;10.00;99.90;;;-144.05;91.33;56844.59;5037010;28;20057;-78
2023/05/06 00:25:48;;;;;;;39.13;20.98;;;10.00;99.90;;;-144.05;91.16;56859.47;5036365;28;20037;-78
2023/05/06 00:28:13;;;;;;;38.10;21.38;;;10.00;99.90;;;-144.05;91.42;56861.56;5035914;28;20025;-78
2023/05/06 00:30:39;;;;;;;39.13;23.02;;;10.00;99.90;;;-144.05;91.00;56850.97;5036058;28;20033;-77
2023/05/06 00:33:05;;;;;;;43.17;22.10;;;10.00;99.90;;;-144.05;91.02;56844.59;5019308;28;20163;-79
2023/05/06 00:35:31;;;;;;;39.33;22.20;;;10.00;99.90;;;-144.05;91.08;56846.72;5036419;28;20041;-80
2023/05/06 00:38:14;;;;;;;40.70;21.70;;;10.00;99.90;;;-144.05;91.22;56859.47;5037967;28;20065;-79
2023/05/06 00:40:40;;;;;;;40.60;22.38;;;10.10;99.90;;;-144.05;91.41;56846.72;5022222;28;20415;-78
2023/05/06 00:43:06;;;;;;;40.15;22.80;;;10.00;99.90;;;-144.05;91.02;56874.31;5022048;28;20021;-79
2023/05/06 00:45:32;;;;;;;41.33;23.50;;;9.90;99.90;;;-144.05;90.98;56876.44;5020781;28;20736;-78
2023/05/06 00:47:59;;;;;;;42.97;21.90;;;9.90;99.90;;;-144.05;91.15;56865.81;5018126;28;20374;-77
2023/05/06 00:50:27;;;;;;;35.72;20.20;;;9.90;99.90;;;-144.05;90.89;56829.72;5041002;28;20034;-77
2023/05/06 00:52:55;;;;;;;35.75;20.40;;;9.80;99.90;;;-144.05;90.97;56876.44;5041724;28;20509;-78
2023/05/06 00:55:21;;;;;;;33.33;19.88;;;9.80;99.90;;;-144.05;90.65;56867.94;5022066;28;20037;-80
2023/05/06 00:57:50;;;;;;;36.95;19.23;;;9.70;99.90;;;-144.05;90.81;56863.69;5041804;28;20527;-78
2023/05/06 01:00:19;;;;;;;39.83;20.88;;;9.70;99.90;;;-144.05;90.75;56880.69;5044370;28;20025;-78
2023/05/06 01:02:46;;;;;;;41.25;20.15;;;9.70;99.90;;;-144.05;90.83;56870.06;5041812;28;20025;-79
2023/05/06 01:05:13;;;;;;;34.40;20.70;;;9.60;99.90;;;-144.05;90.77;56861.56;5041351;28;20033;-77
2023/05/06 01:08:31;;;;;;;41.08;21.63;;;9.60;99.90;;;-144.05;90.88;56857.34;5042845;28;20444;-79
2023/05/06 01:11:08;;;;;;;;;;;9.50;99.90;;;-144.05;90.65;56863.69;5042001;28;20029;-79
2023/05/06 01:13:56;;;;;;;37.13;19.38;;;9.40;99.90;;;-144.05;90.87;56882.81;5038010;28;19919;-77
2023/05/06 01:16:30;;;;;;;41.30;20.42;;;9.40;99.90;;;-144.05;90.77;56867.94;5040196;28;20056;-77
2023/05/06 01:18:59;;;;;;;39.97;20.83;;;9.40;99.90;;;-144.05;90.81;56884.94;5038951;28;20104;-78
2023/05/06 01:21:33;;;;;;;44.95;22.25;;;9.40;99.90;;;-144.05;90.79;56867.94;5019601;28;20048;-77
2023/05/06 01:24:00;;;;;;;44.75;22.48;;;9.30;99.90;;;-144.05;90.99;56878.56;5038004;28;20108;-77
2023/05/06 01:26:26;;;;;;;40.78;21.30;;;9.40;99.90;;;-144.05;90.80;56895.56;5038463;28;20044;-78
2023/05/06 01:28:53;;;;;;;38.15;20.00;;;9.30;99.90;;;-144.05;90.62;56846.72;5037765;28;20052;-79
2023/05/06 01:31:35;;;;;;;37.40;18.40;;;9.30;99.90;;;-144.05;90.42;56844.59;5019045;28;20116;-76
2023/05/06 01:34:23;;;;;;;31.63;16.77;;;9.20;99.90;;;-144.05;90.46;56857.34;5038479;28;20027;-78
2023/05/06 01:37:20;;;;;;;35.00;17.38;;;9.20;99.90;;;-144.05;90.45;56865.81;5037957;28;20117;-77
2023/05/06 01:39:48;;;;;;;35.35;18.50;;;9.10;99.90;;;-144.05;90.87;56867.94;5036579;28;20314;-78
2023/05/06 01:42:16;;;;;;;32.90;16.65;;;9.10;99.90;;;-144.05;90.69;56855.22;5036706;28;20435;-79
2023/05/06 01:44:44;;;;;;;31.50;17.83;;;9.00;99.90;;;-144.05;90.45;56880.69;5020344;28;20033;-78
2023/05/06 01:47:12;;;;;;;35.72;18.08;;;9.00;99.90;;;-144.05;90.77;56865.81;5037720;28;20519;-77
2023/05/06 01:49:38;;;;;;;38.45;18.42;;;9.10;99.90;;;-144.05;90.70;56865.81;5036842;28;20036;-76
2023/05/06 01:52:04;;;;;;;54.65;24.42;;;9.00;99.90;;;-144.05;91.53;56861.56;5037892;28;20030;-77
2023/05/06 01:54:30;;;;;;;63.70;26.20;;;9.20;99.90;;;-144.05;91.33;56840.34;5019899;28;20065;-77
2023/05/06 01:56:56;;;;;;;37.47;19.00;;;9.40;99.90;;;-144.05;90.97;56878.56;5038369;28;20041;-77
2023/05/06 01:59:22;;;;;;;34.97;18.92;;;9.30;99.90;;;-144.05;90.69;56870.06;5037334;28;20022;-77
2023/05/06 02:01:48;;;;;;;35.60;19.77;;;9.20;99.90;;;-144.05;90.57;56872.19;5018133;28;20065;-77
2023/05/06 02:04:14;;;;;;;35.28;17.25;;;9.20;99.90;;;-144.05;90.70;56878.56;5036509;28;20032;-76
2023/05/06 02:06:40;;;;;;;32.80;17.50;;;9.10;99.90;;;-144.05;90.82;56859.47;5035710;28;20413;-76
2023/05/06 02:09:06;;;;;;;39.17;19.00;;;9.00;99.90;;;-144.05;91.18;56867.94;5018276;28;20029;-78
2023/05/06 02:11:31;;;;;;;40.08;19.15;;;9.00;99.90;;;-144.05;91.38;56878.56;5036204;28;20033;-77
2023/05/06 02:13:57;;;;;;;47.92;22.25;;;9.00;99.90;;;-144.05;91.61;56880.69;5036753;28;20037;-78
2023/05/06 02:16:29;;;;;;;60.72;25.25;;;9.00;99.90;;;-144.05;91.85;56878.56;5035064;28;20049;-77
2023/05/06 02:18:55;;;;;;;53.40;24.00;;;9.10;99.90;;;-144.05;91.23;56865.81;5036659;28;20025;-78
2023/05/06 02:21:22;;;;;;;49.92;23.23;;;9.20;99.90;;;-144.05;90.99;56893.44;5037695;28;20032;-78
2023/05/06 02:23:48;;;;;;;39.30;20.00;;;9.10;99.90;;;-144.05;90.88;56867.94;5035132;28;20112;-77
2023/05/06 02:26:15;;;;;;;31.73;17.13;;;9.00;99.90;;;-144.05;90.79;56857.34;5035342;28;20029;-79
2023/05/06 02:28:41;;;;;;;33.53;17.05;;;8.90;99.90;;;-144.05;90.54;56880.69;5034785;28;20619;-77
2023/05/06 02:31:07;;;;;;;35.28;19.20;;;8.80;99.90;;;-144.05;90.60;56884.94;5035600;28;20033;-76
2023/05/06 02:33:33;;;;;;;43.83;21.30;;;8.80;99.90;;;-144.05;91.12;56889.19;5038533;28;20095;-78
2023/05/06 02:35:59;;;;;;;48.70;22.20;;;8.70;99.90;;;-144.05;91.44;56872.19;5035622;28;20102;-77
2023/05/06 02:38:25;;;;;;;63.20;26.48;;;8.70;99.90;;;-144.05;92.48;56895.56;5017834;28;20028;-78
2023/05/06 02:40:51;;;;;;;74.63;28.90;;;8.80;99.90;;;-144.05;93.28;56867.94;5035200;28;20029;-78
2023/05/06 02:43:17;;;;;;;76.53;29.15;;;9.00;99.90;;;-144.05;93.03;56853.09;5035045;28;20022;-77
2023/05/06 02:45:42;;;;;;;78.80;29.25;;;9.20;99.90;;;-144.05;93.32;56882.81;5035481;28;20493;-77
2023/05/06 02:48:08;;;;;;;74.95;31.17;;;9.20;99.90;;;-144.05;92.22;56880.69;5035845;28;20064;-76
2023/05/06 02:50:35;;;;;;;69.18;27.35;;;9.30;99.90;;;-144.05;92.38;56889.19;5035426;28;20026;-78
2023/05/06 02:53:00;;;;;;;54.15;24.42;;;9.40;99.90;;;-144.05;91.79;56846.72;5035213;28;20025;-77
2023/05/06 02:55:26;;;;;;;41.35;20.20;;;9.30;99.90;;;-144.05;91.36;56846.72;5035466;28;20037;-77
2023/05/06 02:57:52;;;;;;;37.45;21.00;;;9.20;99.90;;;-144.05;90.85;56880.69;5036168;28;20041;-77
2023/05/06 03:00:18;;;;;;;39.95;19.98;;;8.90;99.90;;;-144.05;90.85;56874.31;5034783;28;20057;-77
2023/05/06 03:02:44;;;;;;;40.45;19.17;;;8.80;99.90;;;-144.05;90.96;56906.19;5035681;28;20083;-78
2023/05/06 03:05:10;;;;;;;40.38;19.88;;;8.70;99.90;;;-144.05;90.91;56893.44;5018782;28;20033;-78
2023/05/06 03:07:37;;;;;;;32.80;17.02;;;8.60;99.90;;;-144.05;91.03;56872.19;5035422;28;20481;-78
2023/05/06 03:10:04;;;;;;;34.67;18.60;;;8.50;99.90;;;-144.05;90.95;56870.06;5036120;28;20038;-78
2023/05/06 03:12:30;;;;;;;39.38;18.77;;;8.50;99.90;;;-144.05;90.87;56901.94;5035138;28;20108;-78
2023/05/06 03:14:55;;;;;;;32.88;17.23;;;8.40;99.90;;;-144.05;90.92;56882.81;5016904;28;20068;-77
2023/05/06 03:17:21;;;;;;;28.95;16.15;;;8.40;99.90;;;-144.05;90.45;56887.06;5017320;28;20025;-77
2023/05/06 03:19:49;;;;;;;21.92;12.45;;;8.30;99.90;;;-144.05;90.49;56889.19;5033026;28;20036;-77
2023/05/06 03:22:15;;;;;;;33.83;15.23;;;8.10;99.90;;;-144.05;90.82;56887.06;5035923;28;20029;-78
2023/05/06 03:24:41;;;;;;;35.88;17.08;;;8.00;99.90;;;-144.05;91.02;56891.31;5037126;28;20116;-78
2023/05/06 03:27:07;;;;;;;33.33;16.42;;;8.00;99.90;;;-144.05;90.85;56876.44;5035961;28;20064;-76
2023/05/06 03:29:32;;;;;;;39.08;18.33;;;7.90;99.90;;;-144.05;90.85;56891.31;5036018;28;20434;-78
2023/05/06 03:32:03;;;;;;;39.17;18.13;;;7.90;99.90;;;-144.05;91.07;56887.06;5017849;28;20033;-76
2023/05/06 03:34:29;;;;;;;35.97;16.88;;;8.00;99.90;;;-144.05;90.96;56878.56;5035333;28;20029;-78
2023/05/06 03:36:56;;;;;;;59.75;15.23;;;8.00;99.90;;;-144.05;90.71;56887.06;5018901;28;20025;-78
2023/05/06 03:39:23;;;;;;;23.80;12.40;;;8.00;99.90;;;-144.05;90.28;56872.19;5036067;28;20032;-77
2023/05/06 03:41:49;;;;;;;23.92;12.32;;;7.80;99.90;;;-144.05;90.31;56855.22;5017255;28;20535;-77
2023/05/06 03:44:15;;;;;;;32.80;16.58;;;7.80;99.90;;;-144.05;90.63;56887.06;5033370;28;20048;-76
2023/05/06 03:46:41;;;;;;;39.25;18.20;;;7.80;99.90;;;-144.05;90.96;56872.19;5033755;28;20038;-77
2023/05/06 03:49:07;;;;;;;43.97;18.73;;;7.80;99.90;;;-144.05;91.08;56882.81;5033750;28;20047;-77
2023/05/06 03:51:34;;;;;;;35.92;17.45;;;7.80;99.90;;;-144.05;91.01;56872.19;5035010;28;20030;-77
2023/05/06 03:54:01;;;;;;;44.53;18.80;;;7.80;99.90;;;-144.05;90.57;56878.56;5036071;28;20032;-78
2023/05/06 03:56:26;;;;;;;42.25;19.50;;;7.80;99.90;;;-144.05;90.74;56897.69;5049560;28;20034;-76
2023/05/06 03:58:53;;;;;;;32.92;15.75;;;7.80;99.90;;;-144.05;90.75;56891.31;5031349;28;20060;-77
2023/05/06 04:01:20;;;;;;;38.45;17.42;;;7.80;99.90;;;-144.05;90.27;56859.47;5049662;28;20025;-77
2023/05/06 04:03:46;;;;;;;36.65;16.80;;;7.70;99.90;;;-144.05;90.34;56867.94;5034686;28;20033;-78
2023/05/06 04:06:12;;;;;;;40.75;17.85;;;7.70;99.90;;;-144.05;90.50;56874.31;5028121;28;20041;-78
2023/05/06 04:08:38;;;;;;;38.75;18.65;;;7.70;99.90;;;-144.05;90.62;56882.81;5018044;28;20505;-78
2023/05/06 04:11:07;;;;;;;41.33;18.70;;;7.70;99.90;;;-144.05;90.73;56865.81;5035857;28;20030;-78
2023/05/06 04:13:34;;;;;;;41.30;19.05;;;7.70;99.90;;;-144.05;90.90;56880.69;5017590;28;20037;-77
2023/05/06 04:16:00;;;;;;;49.90;21.88;;;7.70;99.90;;;-144.05;90.83;56891.31;5020325;28;20029;-77
2023/05/06 04:18:26;;;;;;;41.08;18.88;;;7.70;99.90;;;-144.05;90.82;56882.81;5020412;28;20092;-78
2023/05/06 04:20:52;;;;;;;48.13;21.15;;;7.80;99.90;;;-144.05;90.62;56884.94;5038469;28;20081;-77
2023/05/06 04:23:18;;;;;;;46.17;22.27;;;7.90;99.90;;;-144.05;90.72;56882.81;5039955;28;20429;-76
2023/05/06 04:25:47;;;;;;;46.15;21.38;;;8.00;99.90;;;-144.05;91.03;56891.31;5041912;28;20075;-78
2023/05/06 04:28:15;;;;;;;48.85;21.70;;;8.10;99.90;;;-144.05;90.74;56884.94;5024164;28;20029;-77
2023/05/06 04:30:45;;;;;;;50.55;21.35;;;8.20;99.90;;;-144.05;90.92;56880.69;5042189;28;20017;-77
2023/05/06 04:33:11;;;;;;;44.97;21.00;;;8.40;99.90;;;-144.05;90.89;56887.06;5041024;28;20397;-76
2023/05/06 04:35:39;;;;;;;46.10;22.08;;;8.40;99.90;;;-144.05;90.70;56870.06;5025105;28;20026;-78
2023/05/06 04:38:05;;;;;;;43.30;20.48;;;8.50;99.90;;;-144.05;90.57;56870.06;5024451;28;20021;-79
2023/05/06 04:40:35;;;;;;;44.15;20.67;;;8.50;99.90;;;-144.05;90.83;56882.81;5042004;28;20024;-79
2023/05/06 04:43:01;;;;;;;44.45;20.23;;;8.50;99.90;;;-144.05;90.70;56889.19;5027100;28;20032;-78
2023/05/06 04:45:28;;;;;;;41.97;20.77;;;8.60;99.90;;;-144.05;90.45;56904.06;5042620;28;20105;-79
2023/05/06 04:47:54;;;;;;;40.00;18.42;;;8.60;99.90;;;-144.05;90.54;56867.94;5042261;28;20025;-79
2023/05/06 04:50:20;;;;;;;36.38;18.88;;;8.60;99.90;;;-144.05;90.87;56865.81;5041657;28;20063;-80
2023/05/06 04:52:46;;;;;;;38.83;18.85;;;8.70;99.90;;;-144.05;91.05;56874.31;5041478;28;20029;-78
2023/05/06 04:55:12;;;;;;;45.60;20.42;;;8.80;99.90;;;-144.05;91.14;56893.44;5042410;28;20033;-79
2023/05/06 04:57:37;;;;;;;45.10;20.40;;;9.00;99.90;;;-144.05;91.76;56891.31;5040992;28;20026;-78
2023/05/06 05:00:04;;;;;;;37.85;20.10;;;9.10;99.90;;;-144.05;91.16;56853.09;5022437;28;20060;-77
2023/05/06 05:02:30;;;;;;;40.90;21.23;;;9.30;99.90;;;-144.05;91.18;56887.06;5040898;28;20044;-80
2023/05/06 05:04:56;;;;;;;37.22;18.88;;;9.30;99.90;;;-144.05;91.17;56861.56;5023076;28;20029;-79
2023/05/06 05:07:22;;;;;;;36.88;19.42;;;9.30;99.90;;;-144.05;91.12;56870.06;5023557;28;20033;-77
2023/05/06 05:09:47;;;;;;;33.17;17.98;;;9.30;99.90;;;-144.05;91.07;56889.19;5039497;28;20036;-79
2023/05/06 05:12:13;;;;;;;35.42;18.80;;;9.40;99.90;;;-144.05;91.19;56884.94;5039317;28;20045;-78
2023/05/06 05:14:39;;;;;;;41.50;19.58;;;9.50;99.90;;;-144.05;91.23;56861.56;5023495;28;20030;-78
2023/05/06 05:17:05;;;;;;;34.88;18.92;;;9.70;99.90;;;-144.05;91.34;56859.47;5041142;28;20033;-79
2023/05/06 05:19:31;;;;;;;33.95;21.67;;;9.80;99.90;;;-144.05;91.45;56857.34;5039444;28;20105;-80
2023/05/06 05:21:56;;;;;;;29.30;18.98;;;10.00;99.90;;;-144.05;91.58;56857.34;5037095;28;20029;-79
2023/05/06 05:24:22;;;;;;;34.42;22.95;;;10.10;99.90;;;-144.05;91.67;56865.81;5039291;28;20056;-78
2023/05/06 05:26:48;;;;;;;32.30;21.70;;;10.30;99.90;;;-144.05;91.95;56857.34;5040367;28;20522;-79
2023/05/06 05:29:14;;;;;;;27.13;15.77;;;10.60;99.90;;;-144.05;91.76;56863.69;5028742;28;20035;-79
2023/05/06 05:31:40;;;;;;;23.42;15.65;;;10.70;99.90;;;-144.05;91.89;56872.19;5023296;28;20044;-77
2023/05/06 05:34:06;;;;;;;25.25;16.35;;;10.80;99.90;;;-144.05;91.69;56850.97;5041104;28;20049;-75
2023/05/06 05:36:32;;;;;;;22.67;15.27;;;11.10;99.90;;;-144.05;91.38;56865.81;5040569;28;20056;-79
2023/05/06 05:38:57;;;;;;;23.75;15.13;;;11.40;99.90;;;-144.05;91.20;56865.81;5022584;28;20048;-77
2023/05/06 05:41:25;;;;;;;25.02;16.25;;;11.50;99.90;;;-144.05;90.78;56840.34;5038295;28;20021;-77
2023/05/06 05:43:51;;;;;;;21.92;14.02;;;11.70;99.90;;;-144.05;89.82;56867.94;5039919;28;20397;-80
2023/05/06 05:46:17;;;;;;;18.85;13.07;;;11.90;99.90;;;-144.05;89.58;56855.22;5040929;28;20112;-79
2023/05/06 05:48:43;;;;;;;22.67;13.95;;;12.10;99.90;;;-144.05;88.47;56863.69;5041709;28;20072;-79
2023/05/06 05:51:09;;;;;;;20.48;12.43;;;12.30;99.90;;;-144.05;87.23;56859.47;5042110;28;20079;-78
2023/05/06 05:53:35;;;;;;;19.13;13.52;;;12.50;99.90;;;-144.05;84.70;56853.09;5040868;28;20021;-81
2023/05/06 05:56:01;;;;;;;16.80;11.80;;;12.50;99.90;;;-144.05;84.72;56865.81;5042064;28;20038;-80
2023/05/06 05:58:27;;;;;;;17.10;12.35;;;12.50;99.90;;;-144.05;83.66;56848.84;5024462;28;20030;-78
2023/05/06 06:00:53;;;;;;;15.73;11.73;;;12.80;99.90;;;-144.05;83.11;56861.56;5045757;28;20024;-79
2023/05/06 06:03:19;;;;;;;16.38;11.65;;;13.00;99.90;;;-144.05;82.07;56857.34;5047441;28;20032;-81
2023/05/06 06:05:45;;;;;;;16.17;10.90;;;13.30;99.90;;;-144.05;81.27;56876.44;5032423;28;20025;-77
2023/05/06 06:08:11;;;;;;;15.23;11.35;;;13.50;99.90;;;-144.05;79.92;56848.84;5046959;28;20025;-77
2023/05/06 06:10:37;;;;;;;14.50;10.55;;;13.70;99.90;;;-144.05;78.73;56874.31;5029859;28;20409;-81
2023/05/06 06:13:04;;;;;;;15.10;10.63;;;13.90;99.90;;;-144.05;76.84;56850.97;5041728;28;20140;-79
2023/05/06 06:15:30;;;;;;;14.40;10.63;;;14.10;99.90;;;-144.05;74.97;56853.09;5020249;28;20374;-79
2023/05/06 06:17:56;;;;;;;15.52;11.30;;;14.20;99.90;;;-144.05;74.11;56846.72;5019782;28;20036;-79
2023/05/06 06:20:22;;;;;;;15.10;11.27;;;14.40;99.90;;;-144.05;73.62;56884.94;5038133;28;20026;-78
2023/05/06 06:22:48;;;;;;;16.20;11.45;;;14.50;99.90;;;-144.05;72.40;56844.59;5038576;28;20021;-78
2023/05/06 06:25:13;;;;;;;12.48;9.27;;;14.70;99.90;;;-144.05;72.04;56857.34;5038279;28;20038;-77
2023/05/06 06:27:39;;;;;;;12.40;9.05;;;15.10;99.90;;;-144.05;70.87;56863.69;5018728;28;20524;-78
2023/05/06 06:30:06;;;;;;;12.20;9.15;;;15.40;99.90;;;-144.05;68.03;56865.81;5018199;28;20049;-77
2023/05/06 06:32:32;;;;;;;9.68;7.43;;;15.60;99.90;;;-144.05;67.30;56865.81;5036021;28;20022;-84
2023/05/06 06:34:58;;;;;;;10.75;8.80;;;15.60;99.90;;;-144.05;66.98;56865.81;5039193;28;20025;-82
2023/05/06 06:37:24;;;;;;;12.40;9.18;;;15.90;99.90;;;-144.05;66.98;56861.56;5038996;28;20489;-82
2023/05/06 06:39:50;;;;;;;11.82;8.90;;;16.00;99.90;;;-144.05;66.50;56870.06;5036505;28;20048;-83
2023/05/06 06:42:15;;;;;;;14.98;8.95;;;16.20;99.90;;;-144.05;66.68;56872.19;5022733;28;20079;-79
2023/05/06 06:44:41;;;;;;;11.77;9.15;;;16.30;99.90;;;-144.05;65.78;56882.81;5038426;28;20555;-80
2023/05/06 06:47:07;;;;;;;10.07;7.00;;;16.40;99.90;;;-144.05;64.74;56897.69;5021993;28;20038;-83
2023/05/06 06:49:33;;;;;;;11.23;8.23;;;16.60;99.90;;;-144.05;63.52;56891.31;5018280;28;20044;-77
2023/05/06 06:51:59;;;;;;;11.60;8.52;;;16.80;99.90;;;-144.05;62.21;56906.19;5034262;28;20508;-81
2023/05/06 06:54:25;;;;;;;9.95;7.63;;;16.50;99.90;;;-144.05;63.13;56899.81;5014971;28;20124;-76
2023/05/06 06:56:57;;;;;;;9.27;7.00;;;16.80;99.90;;;-144.05;62.91;56863.69;5033287;28;20489;-75
2023/05/06 06:59:23;;;;;;;10.00;7.07;;;17.10;99.90;;;-144.05;61.04;56887.06;5015039;28;20029;-75
2023/05/06 07:01:50;;;;;;;11.27;6.40;;;17.00;99.90;;;-144.05;61.45;56884.94;5033510;28;20096;-78
2023/05/06 07:04:15;;;;;;;10.07;7.32;;;17.00;99.90;;;-144.05;62.03;56889.19;5015646;28;20037;-75
2023/05/06 07:06:41;;;;;;;8.90;6.57;;;17.10;99.90;;;-144.05;60.29;56887.06;5015738;28;20060;-75
2023/05/06 07:09:07;;;;;;;9.60;7.13;;;17.20;99.90;;;-144.05;58.77;56880.69;5032510;28;20032;-76
2023/05/06 07:11:33;;;;;;;18.50;12.20;;;17.40;99.90;;;-144.05;60.11;56882.81;5013907;28;20045;-75
2023/05/06 07:13:59;;;;;;;14.43;9.60;;;17.70;99.90;;;-144.05;59.62;56891.31;5031667;28;20065;-75
2023/05/06 07:16:24;;;;;;;15.57;10.93;;;18.10;99.90;;;-144.05;57.29;56893.44;5031977;28;20088;-73
2023/05/06 07:18:52;;;;;;;11.23;7.15;;;18.30;99.90;;;-144.05;56.38;56918.94;5013859;28;20076;-76
2023/05/06 07:21:19;;;;;;;9.25;6.50;;;18.30;99.90;;;-144.05;55.89;56918.94;5031503;28;20052;-75
2023/05/06 07:23:44;;;;;;;7.75;6.00;;;18.50;99.90;;;-144.05;53.96;56897.69;5031954;28;20099;-77
2023/05/06 07:26:10;;;;;;;7.95;5.95;;;18.70;99.90;;;-144.05;54.13;56925.28;5031691;28;20033;-76
2023/05/06 07:28:36;;;;;;;10.60;6.72;;;19.10;99.90;;;-144.05;53.49;56921.06;5031804;28;20040;-76
2023/05/06 07:31:02;;;;;;;7.32;4.93;;;19.00;99.90;;;-144.05;53.46;56897.69;5032327;28;20053;-76
2023/05/06 07:33:28;;;;;;;8.45;5.90;;;19.20;99.90;;;-144.05;53.62;56912.56;5032618;28;20029;-77
2023/05/06 07:35:54;;;;;;;8.93;6.50;;;19.20;99.90;;;-144.05;53.60;56921.06;5032505;28;20045;-75
2023/05/06 07:38:23;;;;;;;8.98;7.00;;;19.10;99.90;;;-144.05;53.03;56929.53;5031595;28;20025;-76
2023/05/06 07:40:50;;;;;;;9.10;6.35;;;19.10;99.90;;;-144.05;52.97;56906.19;5031960;28;20460;-76
2023/05/06 07:43:16;;;;;;;8.57;6.57;;;19.30;99.90;;;-144.05;53.13;56908.31;5031837;28;20051;-76
2023/05/06 07:45:42;;;;;;;9.25;5.85;;;19.50;99.90;;;-144.05;51.56;56916.81;5031668;28;20350;-75
2023/05/06 07:48:08;;;;;;;8.68;6.20;;;19.80;99.90;;;-144.05;50.40;56923.19;5014176;28;20029;-75
2023/05/06 07:50:34;;;;;;;10.27;6.43;;;19.90;99.90;;;-144.05;49.66;56906.19;5014807;28;20037;-74
2023/05/06 07:53:00;;;;;;;8.18;6.40;;;19.90;99.90;;;-144.05;50.81;56906.19;5032658;28;20029;-75
2023/05/06 07:55:27;;;;;;;10.55;6.00;;;19.90;99.90;;;-144.05;50.44;56912.56;5032471;28;20068;-75
2023/05/06 07:57:53;;;;;;;8.55;6.10;;;19.90;99.90;;;-144.05;50.07;56923.19;5015305;28;20037;-75
2023/05/06 08:00:19;;;;;;;9.45;6.30;;;20.20;99.90;;;-144.05;49.57;56931.66;5018739;28;20025;-75
2023/05/06 08:02:46;;;;;;;10.27;5.70;;;20.60;99.90;;;-144.05;48.38;56933.78;5036186;28;20105;-75
2023/05/06 08:05:13;;;;;;;8.43;5.57;;;20.90;99.90;;;-144.05;47.86;56948.66;5035612;28;20033;-75
2023/05/06 08:07:42;;;;;;;7.55;5.35;;;21.10;99.90;;;-144.05;46.72;56984.78;5035255;28;20420;-75
2023/05/06 08:10:09;;;;;;;21.98;8.57;;;21.30;99.90;;;-144.05;46.07;56957.16;5035602;28;20025;-75
2023/05/06 08:12:36;;;;;;;12.40;7.13;;;21.50;99.90;;;-144.05;47.15;56948.66;5017559;28;20040;-76
2023/05/06 08:15:03;;;;;;;10.02;6.20;;;21.40;99.90;;;-144.05;45.92;56989.00;5017851;28;20060;-76
2023/05/06 08:17:29;;;;;;;10.05;6.85;;;21.50;99.90;;;-144.05;44.61;56961.41;5036353;28;20378;-76
2023/05/06 08:19:55;;;;;;;8.20;6.20;;;21.60;99.90;;;-144.05;45.99;56955.03;5035094;28;20037;-76
2023/05/06 08:22:20;;;;;;;7.10;5.25;;;21.40;99.90;;;-144.05;46.05;56965.66;5035729;28;20040;-80
2023/05/06 08:24:46;;;;;;;9.13;5.78;;;21.50;99.90;;;-144.05;45.56;56959.28;5035888;28;20089;-75
2023/05/06 08:27:12;;;;;;;9.93;5.72;;;21.50;99.90;;;-144.05;43.52;56952.91;5035394;28;20068;-76
2023/05/06 08:29:38;;;;;;;10.82;6.53;;;21.50;99.90;;;-144.05;44.50;56944.41;5017855;28;20116;-83
2023/05/06 08:32:05;;;;;;;7.95;5.63;;;21.40;99.90;;;-144.05;44.76;56955.03;5035062;28;20515;-76
2023/05/06 08:34:31;;;;;;;10.13;7.05;;;21.30;99.90;;;-144.05;44.10;56991.13;5034794;28;20465;-76
2023/05/06 08:36:57;;;;;;;7.28;5.60;;;21.60;99.90;;;-144.05;44.08;56965.66;5034421;28;20032;-75
2023/05/06 08:39:22;;;;;;;5.63;4.43;;;21.80;99.90;;;-144.05;43.39;56995.38;5034795;28;20018;-76
2023/05/06 08:41:54;;;;;;;16.17;10.00;;;22.30;99.90;;;-144.05;42.75;56980.53;5034894;28;20025;-76
2023/05/06 08:44:24;;;;;;;9.27;5.63;;;22.50;99.90;;;-144.05;41.88;56984.78;5034930;28;20033;-75
2023/05/06 08:46:50;;;;;;;12.48;6.72;;;22.50;99.90;;;-144.05;40.39;56980.53;5035600;28;20034;-76
2023/05/06 08:49:16;;;;;;;8.95;5.80;;;22.60;99.90;;;-144.05;40.38;56993.25;5035052;28;20029;-76
2023/05/06 08:51:44;;;;;;;7.28;5.32;;;22.60;99.90;;;-144.05;40.91;57003.88;5035257;28;20029;-76
2023/05/06 08:54:12;;;;;;;6.82;5.30;;;22.70;99.90;;;-144.05;42.34;56963.53;5035893;28;20071;-77
2023/05/06 08:56:55;;;;;;;7.40;4.90;;;22.20;99.90;;;-144.05;41.66;56974.16;5019205;28;20059;-75
2023/05/06 08:59:25;;;;;;;67.15;38.17;;;22.30;99.90;;;-144.05;40.86;57003.88;5035313;28;20021;-76
2023/05/06 09:01:52;;;;;;;16.35;9.40;;;22.60;99.90;;;-144.05;41.95;56982.66;5034384;28;20029;-75
2023/05/06 09:04:19;;;;;;;16.60;10.70;;;22.20;99.90;;;-144.05;41.53;56991.13;5035245;28;20068;-75
2023/05/06 09:06:45;;;;;;;10.63;6.57;;;21.50;99.90;;;-144.05;43.40;56965.66;5034778;28;20038;-74
2023/05/06 09:09:11;;;;;;;8.27;6.13;;;21.20;99.90;;;-144.05;44.82;56963.53;5036680;28;20030;-76
2023/05/06 09:11:37;;;;;;;25.98;14.60;;;21.10;99.90;;;-144.05;45.87;56959.28;5035423;28;20548;-74
2023/05/06 09:14:16;;;;;;;30.98;16.85;;;20.70;99.90;;;-144.05;45.94;56950.78;5036482;28;20043;-74
2023/05/06 09:16:48;;;;;;;29.45;15.70;;;20.90;99.90;;;-144.05;43.48;56957.16;5040148;28;20021;-74
2023/05/06 09:19:16;;;;;;;9.63;5.90;;;21.50;99.90;;;-144.05;41.29;56989.00;5039379;28;20387;-77
2023/05/06 09:21:46;;;;;;;7.28;5.07;;;22.10;99.90;;;-144.05;40.73;56991.13;5039369;28;20374;-74
2023/05/06 09:24:17;;;;;;;11.07;7.43;;;22.40;99.90;;;-144.05;41.83;56984.78;5038331;28;20029;-74
2023/05/06 09:26:45;;;;;;;16.70;10.48;;;22.10;99.90;;;-144.05;42.51;56972.03;5019365;28;20064;-74
2023/05/06 09:29:12;;;;;;;7.68;5.25;;;22.00;99.90;;;-144.05;41.00;56989.00;5036790;28;20029;-73
2023/05/06 09:31:46;;;;;;;6.68;4.43;;;22.40;99.90;;;-144.05;40.95;56991.13;5036791;28;20113;-77
2023/05/06 09:34:16;;;;;;;5.68;2.90;;;22.70;99.90;;;-144.05;38.27;57012.38;5018432;28;20029;-76
2023/05/06 09:36:44;;;;;;;5.80;3.40;;;23.00;99.90;;;-144.05;38.86;57003.88;5037268;28;20036;-75
2023/05/06 09:39:10;;;;;;;8.23;3.63;;;23.20;99.90;;;-144.05;39.61;57010.25;5039068;28;20029;-75
2023/05/06 09:41:37;;;;;;;9.15;6.07;;;23.00;99.90;;;-144.05;39.13;57016.63;5039704;28;20056;-75
2023/05/06 09:44:04;;;;;;;6.13;3.63;;;22.70;99.90;;;-144.05;38.41;57014.50;5037910;28;20319;-77
2023/05/06 09:46:31;;;;;;;6.32;3.63;;;22.70;99.90;;;-144.05;38.82;57006.00;5042891;28;20489;-75
2023/05/06 09:48:59;;;;;;;5.40;2.70;;;22.70;99.90;;;-144.05;39.43;57006.00;5039643;28;20044;-74
2023/05/06 09:51:29;;;;;;;6.95;3.20;;;22.90;99.90;;;-144.05;38.72;57018.75;5041710;28;20029;-75
2023/05/06 09:53:57;;;;;;;6.93;3.22;;;23.30;99.90;;;-144.05;36.45;57023.00;5038157;28;20104;-74
2023/05/06 09:56:25;;;;;;;3.53;2.20;;;23.60;99.90;;;-144.05;36.89;57003.88;5038888;28;20037;-75
2023/05/06 09:58:54;;;;;;;3.88;2.17;;;23.40;99.90;;;-144.05;37.25;57018.75;5037070;28;20024;-74
2023/05/06 10:01:21;;;;;;;3.15;1.90;;;23.70;99.90;;;-144.05;36.54;57031.50;5037874;28;20025;-74